createdAt,value
2019-01-23T00:01:30.571Z,65.73
2019-01-23T00:04:00.072Z,64.57
2019-01-23T00:06:29.565Z,67.57
2019-01-23T00:08:59.059Z,64.17
2019-01-23T00:11:33.379Z,61.27
2019-01-23T00:14:03.085Z,56.20
2019-01-23T00:16:32.585Z,62.87
2019-01-23T00:19:02.093Z,62.17
2019-01-23T00:21:32.131Z,44.87
2019-01-23T00:24:01.613Z,55.20
2019-01-23T00:26:31.125Z,53.57
2019-01-23T00:29:00.690Z,56.43
2019-01-23T00:31:30.168Z,58.47
2019-01-23T00:33:59.651Z,54.33
2019-01-23T00:36:29.136Z,53.63
2019-01-23T00:38:58.615Z,47.03
2019-01-23T00:41:28.104Z,51.87
2019-01-23T00:44:08.087Z,47.20
2019-01-23T00:46:37.584Z,45.97
2019-01-23T00:49:07.063Z,42.43
2019-01-23T00:51:36.562Z,46.40
2019-01-23T00:54:06.413Z,42.43
2019-01-23T00:56:36.780Z,41.73
2019-01-23T00:59:06.294Z,44.13
2019-01-23T01:01:35.767Z,39.37
2019-01-23T01:04:05.480Z,40.40
2019-01-23T01:06:34.982Z,38.33
2019-01-23T01:09:08.467Z,41.47
2019-01-23T01:11:43.424Z,33.50
2019-01-23T01:14:13.307Z,38.63
2019-01-23T01:16:42.791Z,38.97
2019-01-23T01:19:12.275Z,34.17
2019-01-23T01:21:41.759Z,39.77
2019-01-23T01:24:11.555Z,35.70
2019-01-23T01:26:41.054Z,36.63
2019-01-23T01:29:10.523Z,36.97
2019-01-23T01:31:39.979Z,40.40
2019-01-23T01:34:09.479Z,38.27
2019-01-23T01:36:38.965Z,32.37
2019-01-23T01:39:09.101Z,21.10
2019-01-23T01:41:38.577Z,38.87
2019-01-23T01:44:08.065Z,40.27
2019-01-23T01:46:37.551Z,37.20
2019-01-23T01:49:07.051Z,39.47
2019-01-23T01:51:36.529Z,36.83
2019-01-23T01:54:06.268Z,36.07
2019-01-23T01:56:47.521Z,37.80
2019-01-23T01:59:16.988Z,39.90
2019-01-23T02:01:46.485Z,38.57
2019-01-23T02:04:17.043Z,41.90
2019-01-23T02:06:46.519Z,38.40
2019-01-23T02:09:16.041Z,37.47
2019-01-23T02:11:52.339Z,38.63
2019-01-23T02:14:21.844Z,35.80
2019-01-23T02:16:51.342Z,47.70
2019-01-23T02:19:20.816Z,39.87
2019-01-23T02:21:50.282Z,43.33
2019-01-23T02:24:19.756Z,45.30
2019-01-23T02:26:49.246Z,41.97
2019-01-23T02:29:18.707Z,42.20
2019-01-23T02:31:48.202Z,42.17
2019-01-23T02:34:17.688Z,44.67
2019-01-23T02:36:47.172Z,42.53
2019-01-23T02:39:16.679Z,41.23
2019-01-23T02:41:46.165Z,40.33
2019-01-23T02:44:16.611Z,33.97
2019-01-23T02:46:46.097Z,39.57
2019-01-23T02:49:15.599Z,42.63
2019-01-23T02:51:45.083Z,37.23
2019-01-23T02:54:14.818Z,40.17
2019-01-23T02:56:44.327Z,43.33
2019-01-23T02:59:17.484Z,38.23
2019-01-23T03:01:45.072Z,43.27
2019-01-23T03:04:14.549Z,38.47
2019-01-23T03:06:44.036Z,37.23
2019-01-23T03:09:13.551Z,35.90
2019-01-23T03:11:43.480Z,37.47
2019-01-23T03:14:12.976Z,30.67
2019-01-23T03:16:42.487Z,33.63
2019-01-23T03:19:12.099Z,37.37
2019-01-23T03:21:41.584Z,35.47
2019-01-23T03:24:11.323Z,42.03
2019-01-23T03:26:40.795Z,35.67
2019-01-23T03:29:10.276Z,33.20
2019-01-23T03:31:39.759Z,34.97
2019-01-23T03:34:09.219Z,34.73
2019-01-23T03:36:38.729Z,33.40
2019-01-23T03:39:08.456Z,32.27
2019-01-23T03:41:38.030Z,30.47
2019-01-23T03:44:07.500Z,28.77
2019-01-23T03:46:36.967Z,30.67
2019-01-23T03:49:06.459Z,28.70
2019-01-23T03:51:35.926Z,24.10
2019-01-23T03:54:05.523Z,27.90
2019-01-23T03:56:35.045Z,29.63
2019-01-23T03:59:04.672Z,29.90
2019-01-23T04:01:34.157Z,28.17
2019-01-23T04:04:03.659Z,29.20
2019-01-23T04:06:33.169Z,29.47
2019-01-23T04:09:02.737Z,32.63
2019-01-23T04:11:36.787Z,27.23
2019-01-23T04:14:06.270Z,30.47
2019-01-23T04:16:35.710Z,29.47
2019-01-23T04:19:05.154Z,29.17
2019-01-23T04:21:34.610Z,27.53
2019-01-23T04:24:04.063Z,28.47
2019-01-23T04:26:33.518Z,33.63
2019-01-23T04:29:02.981Z,29.13
2019-01-23T04:31:32.405Z,29.50
2019-01-23T04:34:01.851Z,27.10
2019-01-23T04:36:31.312Z,29.90
2019-01-23T04:39:00.745Z,31.50
2019-01-23T04:41:31.777Z,25.87
2019-01-23T04:44:01.237Z,28.10
2019-01-23T04:46:30.873Z,22.83
2019-01-23T04:49:00.321Z,32.17
2019-01-23T04:51:42.566Z,32.17
2019-01-23T04:54:17.410Z,31.70
2019-01-23T04:56:47.807Z,30.23
2019-01-23T04:59:17.225Z,35.93
2019-01-23T05:01:46.659Z,32.53
2019-01-23T05:04:16.090Z,31.73
2019-01-23T05:06:45.497Z,36.70
2019-01-23T05:09:14.960Z,31.97
2019-01-23T05:11:44.610Z,34.63
2019-01-23T05:14:15.043Z,32.47
2019-01-23T05:16:44.450Z,29.20
2019-01-23T05:19:13.872Z,31.40
2019-01-23T05:21:43.308Z,24.30
2019-01-23T05:24:12.808Z,28.77
2019-01-23T05:26:42.245Z,28.57
2019-01-23T05:29:11.708Z,26.10
2019-01-23T05:31:41.191Z,28.00
2019-01-23T05:34:10.646Z,28.93
2019-01-23T05:36:40.096Z,33.47
2019-01-23T05:39:09.556Z,31.80
2019-01-23T05:41:38.993Z,35.27
2019-01-23T05:44:08.426Z,30.87
2019-01-23T05:46:37.855Z,34.87
2019-01-23T05:49:07.434Z,32.93
2019-01-23T05:51:36.948Z,33.63
2019-01-23T05:54:06.565Z,36.20
2019-01-23T05:56:36.274Z,33.93
2019-01-23T05:59:05.710Z,35.30
2019-01-23T06:01:36.218Z,32.73
2019-01-23T06:04:05.705Z,33.37
2019-01-23T06:06:35.432Z,33.10
2019-01-23T06:09:07.934Z,33.63
2019-01-23T06:11:37.921Z,33.17
2019-01-23T06:14:07.389Z,30.57
2019-01-23T06:16:36.832Z,33.00
2019-01-23T06:19:06.316Z,33.23
2019-01-23T06:21:35.745Z,30.73
2019-01-23T06:24:05.233Z,28.53
2019-01-23T06:26:34.625Z,30.93
2019-01-23T06:29:04.056Z,28.93
2019-01-23T06:31:33.495Z,32.97
2019-01-23T06:34:03.028Z,29.50
2019-01-23T06:36:32.991Z,30.60
2019-01-23T06:39:02.805Z,31.10
2019-01-23T06:41:32.231Z,31.57
2019-01-23T06:44:01.846Z,29.17
2019-01-23T06:46:31.307Z,31.67
2019-01-23T06:49:00.770Z,32.60
2019-01-23T06:51:30.211Z,31.00
2019-01-23T06:53:59.880Z,29.30
2019-01-23T06:56:29.314Z,36.33
2019-01-23T06:58:58.787Z,35.33
2019-01-23T07:01:28.269Z,34.07
2019-01-23T07:03:57.857Z,38.13
2019-01-23T07:06:27.322Z,36.10
2019-01-23T07:08:56.806Z,36.43
2019-01-23T07:11:26.281Z,37.30
2019-01-23T07:13:56.771Z,40.63
2019-01-23T07:16:26.413Z,38.73
2019-01-23T07:18:55.837Z,40.50
2019-01-23T07:21:25.286Z,40.83
2019-01-23T07:23:54.734Z,38.27
2019-01-23T07:26:24.209Z,39.13
2019-01-23T07:28:53.677Z,42.13
2019-01-23T07:31:23.168Z,40.97
2019-01-23T07:33:52.758Z,44.37
2019-01-23T07:36:23.495Z,40.13
2019-01-23T07:38:53.326Z,40.73
2019-01-23T07:41:22.827Z,42.57
2019-01-23T07:43:52.279Z,43.37
2019-01-23T07:46:21.738Z,43.77
2019-01-23T07:48:52.177Z,40.73
2019-01-23T07:51:21.678Z,39.23
2019-01-23T07:53:51.666Z,41.77
2019-01-23T07:56:21.099Z,41.53
2019-01-23T07:58:50.542Z,45.60
2019-01-23T08:01:20.026Z,41.23
2019-01-23T08:03:49.510Z,41.57
2019-01-23T08:06:18.953Z,41.50
2019-01-23T08:08:48.399Z,41.77
2019-01-23T08:11:17.892Z,42.00
2019-01-23T08:13:47.466Z,40.67
2019-01-23T08:16:19.153Z,42.57
2019-01-23T08:18:48.604Z,46.57
2019-01-23T08:21:18.043Z,45.17
2019-01-23T08:23:47.467Z,42.23
2019-01-23T08:26:17.160Z,46.53
2019-01-23T08:28:46.632Z,51.10
2019-01-23T08:31:16.071Z,46.83
2019-01-23T08:33:45.506Z,46.50
2019-01-23T08:36:15.035Z,48.57
2019-01-23T08:38:44.612Z,51.43
2019-01-23T08:41:14.031Z,46.83
2019-01-23T08:43:43.478Z,47.43
2019-01-23T08:46:12.929Z,50.60
2019-01-23T08:48:42.447Z,46.37
2019-01-23T08:51:11.918Z,47.70
2019-01-23T08:53:41.678Z,48.33
2019-01-23T08:56:11.157Z,44.73
2019-01-23T08:58:40.582Z,44.00
2019-01-23T09:01:10.059Z,47.63
2019-01-23T09:03:39.497Z,48.63
2019-01-23T09:06:08.953Z,45.30
2019-01-23T09:08:38.397Z,44.33
2019-01-23T09:11:07.837Z,43.67
2019-01-23T09:13:37.270Z,40.50
2019-01-23T09:16:06.825Z,45.13
2019-01-23T09:18:36.546Z,41.53
2019-01-23T09:21:06.138Z,43.70
2019-01-23T09:23:35.570Z,45.53
2019-01-23T09:26:05.065Z,47.30
2019-01-23T09:28:34.497Z,45.57
2019-01-23T09:31:44.697Z,45.37
2019-01-23T09:34:36.296Z,41.67
2019-01-23T09:37:35.187Z,42.07
2019-01-23T09:40:16.805Z,43.63
2019-01-23T09:43:42.993Z,40.70
2019-01-23T09:46:54.143Z,41.10
2019-01-23T09:50:08.506Z,39.20
2019-01-23T09:53:12.287Z,41.93
2019-01-23T09:55:41.799Z,46.27
2019-01-23T09:58:11.605Z,42.27
2019-01-23T10:00:41.045Z,40.40
2019-01-23T10:03:10.510Z,44.30
2019-01-23T10:05:39.992Z,43.90
2019-01-23T10:08:09.448Z,39.87
2019-01-23T10:10:38.873Z,40.43
2019-01-23T10:13:08.326Z,41.13
2019-01-23T10:15:46.456Z,44.17
2019-01-23T10:18:16.985Z,36.13
2019-01-23T10:20:46.678Z,42.23
2019-01-23T10:23:16.094Z,42.00
2019-01-23T10:25:45.588Z,45.17
2019-01-23T10:28:15.007Z,42.37
2019-01-23T10:30:44.443Z,42.20
2019-01-23T10:33:13.878Z,40.80
2019-01-23T10:35:43.577Z,42.87
2019-01-23T10:38:13.496Z,43.97
2019-01-23T10:40:43.123Z,40.97
2019-01-23T10:43:12.583Z,43.37
2019-01-23T10:45:41.993Z,44.40
2019-01-23T10:48:11.411Z,42.33
2019-01-23T10:50:40.874Z,40.90
2019-01-23T10:53:11.774Z,39.63
2019-01-23T10:55:41.309Z,41.23
2019-01-23T10:58:10.730Z,37.47
2019-01-23T11:00:40.693Z,41.10
2019-01-23T11:03:10.366Z,35.77
2019-01-23T11:05:40.348Z,42.43
2019-01-23T11:08:10.831Z,43.30
2019-01-23T11:10:40.356Z,37.27
2019-01-23T11:13:10.060Z,37.23
2019-01-23T11:15:39.482Z,38.37
2019-01-23T11:18:08.918Z,36.70
2019-01-23T11:20:38.334Z,37.20
2019-01-23T11:23:07.761Z,40.63
2019-01-23T11:25:37.183Z,37.63
2019-01-23T11:28:06.594Z,38.43
2019-01-23T11:30:36.013Z,37.73
2019-01-23T11:33:05.496Z,37.43
2019-01-23T11:35:35.045Z,35.90
2019-01-23T11:38:04.837Z,35.93
2019-01-23T11:40:34.253Z,37.33
2019-01-23T11:43:03.729Z,35.50
2019-01-23T11:45:33.174Z,37.17
2019-01-23T11:48:02.645Z,38.83
2019-01-23T11:50:32.061Z,40.60
2019-01-23T11:53:01.503Z,36.90
2019-01-23T11:55:30.962Z,36.43
2019-01-23T11:58:12.907Z,36.33
2019-01-23T12:00:42.349Z,41.33
2019-01-23T12:03:11.838Z,37.10
2019-01-23T12:05:42.182Z,38.13
2019-01-23T12:08:11.915Z,34.20
2019-01-23T12:10:41.354Z,39.60
2019-01-23T12:13:10.766Z,36.27
2019-01-23T12:15:40.918Z,35.73
2019-01-23T12:18:10.734Z,33.53
2019-01-23T12:20:40.394Z,34.43
2019-01-23T12:23:09.829Z,32.10
2019-01-23T12:25:39.238Z,29.83
2019-01-23T12:28:08.674Z,22.27
2019-01-23T12:30:38.102Z,15.53
2019-01-23T12:33:07.553Z,17.93
2019-01-23T12:35:37.174Z,15.27
2019-01-23T12:38:06.605Z,17.73
2019-01-23T12:40:36.030Z,16.60
2019-01-23T12:43:05.494Z,20.03
2019-01-23T12:45:34.923Z,21.13
2019-01-23T12:48:04.462Z,24.43
2019-01-23T12:50:33.915Z,22.23
2019-01-23T12:53:03.385Z,22.20
2019-01-23T12:55:32.870Z,20.97
2019-01-23T12:58:02.287Z,22.83
2019-01-23T13:00:31.732Z,23.40
2019-01-23T13:03:01.269Z,26.57
2019-01-23T13:05:30.687Z,31.25
2019-01-23T13:08:00.172Z,26.43
2019-01-23T13:10:30.117Z,23.83
2019-01-23T13:12:59.580Z,26.50
2019-01-23T13:15:29.021Z,28.00
2019-01-23T13:17:58.484Z,27.73
2019-01-23T13:20:27.918Z,27.03
2019-01-23T13:22:57.357Z,25.17
2019-01-23T13:25:28.370Z,30.07
2019-01-23T13:28:00.028Z,27.70
2019-01-23T13:30:29.482Z,28.83
2019-01-23T13:32:58.906Z,29.73
2019-01-23T13:35:34.259Z,28.23
2019-01-23T13:38:05.140Z,28.00
2019-01-23T13:40:36.182Z,28.03
2019-01-23T13:43:06.905Z,29.37
2019-01-23T13:45:36.361Z,28.90
2019-01-23T13:48:07.458Z,30.33
2019-01-23T13:50:37.109Z,29.80
2019-01-23T13:53:06.597Z,31.77
2019-01-23T13:55:36.118Z,32.17
2019-01-23T13:58:05.551Z,30.53
2019-01-23T14:00:40.317Z,32.20
2019-01-23T14:03:10.163Z,31.87
2019-01-23T14:05:40.671Z,31.70
2019-01-23T14:08:10.302Z,29.60
2019-01-23T14:10:39.725Z,31.03
2019-01-23T14:13:10.173Z,31.53
2019-01-23T14:15:40.246Z,28.37
2019-01-23T14:18:09.866Z,29.07
2019-01-23T14:20:39.299Z,30.30
2019-01-23T14:23:08.725Z,30.03
2019-01-23T14:25:38.158Z,29.70
2019-01-23T14:28:07.637Z,31.30
2019-01-23T14:30:39.353Z,30.27
2019-01-23T14:33:08.839Z,29.63
2019-01-23T14:35:40.362Z,28.47
2019-01-23T14:38:09.791Z,28.97
2019-01-23T14:40:39.224Z,29.23
2019-01-23T14:43:08.664Z,29.93
2019-01-23T14:45:38.097Z,30.67
2019-01-23T14:48:07.586Z,28.50
2019-01-23T14:50:37.038Z,34.20
2019-01-23T14:53:06.513Z,32.93
2019-01-23T14:55:35.959Z,32.73
2019-01-23T14:58:05.413Z,31.57
2019-01-23T15:00:34.859Z,33.43
2019-01-23T15:03:04.374Z,32.23
2019-01-23T15:05:33.801Z,32.40
2019-01-23T15:08:03.302Z,32.43
2019-01-23T15:10:32.778Z,32.07
2019-01-23T15:13:02.266Z,35.70
2019-01-23T15:15:31.769Z,34.77
2019-01-23T15:18:01.226Z,39.07
2019-01-23T15:20:35.890Z,34.27
2019-01-23T15:23:05.407Z,33.77
2019-01-23T15:25:34.938Z,32.70
2019-01-23T15:28:04.508Z,36.10
2019-01-23T15:30:34.016Z,37.07
2019-01-23T15:33:03.628Z,37.20
2019-01-23T15:35:33.443Z,37.20
2019-01-23T15:38:03.045Z,39.40
2019-01-23T15:40:34.913Z,37.00
2019-01-23T15:43:05.945Z,35.20
2019-01-23T15:45:47.360Z,37.67
2019-01-23T15:48:16.775Z,36.00
2019-01-23T15:50:46.389Z,38.87
2019-01-23T15:53:17.805Z,37.13
2019-01-23T15:55:47.673Z,37.87
2019-01-23T15:58:17.139Z,37.20
2019-01-23T16:00:46.565Z,37.93
2019-01-23T16:03:16.009Z,24.83
2019-01-23T16:05:45.599Z,27.93
2019-01-23T16:08:15.053Z,31.57
2019-01-23T16:10:44.644Z,36.57
2019-01-23T16:13:42.426Z,38.53
2019-01-23T16:16:16.181Z,34.37
2019-01-23T16:18:45.726Z,34.70
2019-01-23T16:21:15.272Z,39.80
2019-01-23T16:23:44.753Z,40.80
2019-01-23T16:26:14.248Z,39.53
2019-01-23T16:28:43.777Z,38.63
2019-01-23T16:31:13.238Z,40.93
2019-01-23T16:33:42.661Z,41.40
2019-01-23T16:36:12.313Z,41.33
2019-01-23T16:38:41.786Z,39.47
2019-01-23T16:41:11.493Z,42.83
2019-01-23T16:43:42.658Z,42.87
2019-01-23T16:46:12.093Z,39.53
2019-01-23T16:48:41.591Z,41.87
2019-01-23T16:51:11.113Z,38.47
2019-01-23T16:53:40.592Z,40.57
2019-01-23T16:56:10.358Z,38.23
2019-01-23T16:58:41.262Z,39.30
2019-01-23T17:01:10.908Z,40.70
2019-01-23T17:03:40.476Z,41.70
2019-01-23T17:06:09.957Z,41.30
2019-01-23T17:08:39.427Z,39.50
2019-01-23T17:11:09.120Z,43.07
2019-01-23T17:13:38.583Z,44.30
2019-01-23T17:16:11.514Z,41.13
2019-01-23T17:18:47.039Z,44.13
2019-01-23T17:48:55.292Z,41.90
2019-01-23T17:51:26.205Z,36.50
2019-01-23T17:53:56.863Z,36.03
2019-01-23T17:56:32.302Z,35.87
2019-01-23T17:59:07.884Z,31.53
2019-01-23T18:01:37.374Z,34.00
2019-01-23T18:04:06.869Z,31.23
2019-01-23T18:06:36.333Z,27.90
2019-01-23T18:09:08.618Z,27.73
2019-01-23T18:11:38.306Z,24.13
2019-01-23T18:14:07.830Z,20.90
2019-01-23T18:16:37.340Z,23.23
2019-01-23T18:19:07.214Z,20.70
2019-01-23T18:21:36.651Z,20.50
2019-01-23T18:24:06.098Z,20.40
2019-01-23T18:26:37.630Z,21.57
2019-01-23T18:29:07.750Z,21.03
2019-01-23T18:31:50.774Z,22.93
2019-01-23T18:38:13.629Z,19.87
2019-01-23T18:41:39.919Z,23.57
2019-01-23T18:44:21.720Z,23.07
2019-01-23T18:47:52.085Z,21.70
2019-01-23T18:51:00.172Z,23.97
2019-01-23T18:53:29.599Z,9.27
2019-01-23T18:55:59.261Z,19.97
2019-01-23T18:58:29.821Z,16.13
2019-01-23T19:00:59.261Z,22.23
2019-01-23T19:03:29.099Z,20.40
2019-01-23T19:05:58.578Z,23.13
2019-01-23T19:08:28.109Z,24.43
2019-01-23T19:10:57.582Z,20.27
2019-01-23T19:13:27.054Z,21.10
2019-01-23T19:15:56.659Z,23.50
2019-01-23T19:18:26.064Z,22.80
2019-01-23T19:20:55.486Z,23.67
2019-01-23T19:23:24.937Z,22.93
2019-01-23T19:25:54.386Z,20.37
2019-01-23T19:28:25.008Z,21.67
2019-01-23T19:30:54.435Z,22.07
2019-01-23T19:33:23.878Z,17.40
2019-01-23T19:35:53.535Z,22.40
2019-01-23T19:38:23.126Z,21.90
2019-01-23T19:40:52.618Z,21.77
2019-01-23T19:43:22.570Z,23.10
2019-01-23T19:45:52.511Z,21.13
2019-01-23T19:48:21.970Z,22.47
2019-01-23T19:50:51.413Z,21.20
2019-01-23T19:53:20.868Z,22.97
2019-01-23T19:55:50.541Z,22.73
2019-01-23T19:58:20.234Z,21.53
2019-01-23T20:00:49.707Z,18.57
2019-01-23T20:03:20.566Z,21.43
2019-01-23T20:05:50.566Z,24.03
2019-01-23T20:08:20.050Z,25.30
2019-01-23T20:10:49.522Z,25.73
2019-01-23T20:13:18.973Z,26.00
2019-01-23T20:15:48.424Z,28.50
2019-01-23T20:18:17.846Z,26.03
2019-01-23T20:20:47.475Z,25.17
2019-01-23T20:23:16.938Z,29.30
2019-01-23T20:25:46.383Z,29.87
2019-01-23T20:28:15.815Z,28.63
2019-01-23T20:30:45.425Z,29.43
2019-01-23T20:33:14.873Z,30.50
2019-01-23T20:35:50.850Z,31.50
2019-01-23T20:38:20.678Z,31.27
2019-01-23T20:40:50.396Z,30.20
2019-01-23T20:43:19.860Z,26.00
2019-01-23T20:45:49.297Z,31.07
2019-01-23T20:48:18.722Z,28.90
2019-01-23T20:50:48.186Z,31.27
2019-01-23T20:53:18.570Z,30.63
2019-01-23T20:55:48.146Z,32.87
2019-01-23T20:58:19.851Z,29.53
2019-01-23T21:00:49.538Z,27.27
2019-01-23T21:03:19.074Z,26.87
2019-01-23T21:05:48.516Z,30.30
2019-01-23T21:08:17.941Z,23.73
2019-01-23T21:10:47.391Z,29.30
2019-01-23T21:13:16.827Z,25.77
2019-01-23T21:15:46.243Z,28.33
2019-01-23T21:18:15.710Z,26.73
2019-01-23T21:20:45.357Z,26.80
2019-01-23T21:23:16.279Z,25.47
2019-01-23T21:25:45.722Z,30.37
2019-01-23T21:28:15.201Z,29.97
2019-01-23T21:30:44.666Z,29.17
2019-01-23T21:33:14.189Z,34.57
2019-01-23T21:35:43.641Z,30.13
2019-01-23T21:38:13.111Z,36.37
2019-01-23T21:40:43.523Z,33.67
2019-01-23T21:43:12.981Z,35.23
2019-01-23T21:45:42.498Z,34.43
2019-01-23T21:48:11.947Z,33.00
2019-01-23T21:50:41.442Z,31.60
2019-01-23T21:53:10.918Z,31.47
2019-01-23T21:55:40.376Z,28.53
2019-01-23T21:58:09.810Z,27.43
2019-01-23T22:00:41.958Z,29.27
2019-01-23T22:03:12.002Z,28.80
2019-01-23T22:05:41.519Z,28.40
2019-01-23T22:08:11.896Z,28.47
2019-01-23T22:10:41.331Z,27.47
2019-01-23T22:13:10.772Z,28.27
2019-01-23T22:15:40.215Z,27.83
2019-01-23T22:18:09.859Z,22.80
2019-01-23T22:20:39.298Z,28.33
2019-01-23T22:23:09.790Z,28.93
2019-01-23T22:25:39.246Z,27.37
2019-01-23T22:28:08.692Z,31.17
2019-01-23T22:30:38.113Z,25.03
2019-01-23T22:33:07.525Z,26.30
2019-01-23T22:35:37.001Z,28.63
2019-01-23T22:38:06.443Z,27.93
2019-01-23T22:40:35.941Z,28.10
2019-01-23T22:43:05.532Z,26.57
2019-01-23T22:45:34.982Z,28.07
2019-01-23T22:48:04.960Z,25.47
2019-01-23T22:50:34.674Z,25.33
2019-01-23T22:53:04.233Z,26.63
2019-01-23T22:55:33.701Z,23.67
2019-01-23T23:00:58.117Z,26.60
2019-01-23T23:03:27.780Z,26.10
2019-01-23T23:05:57.192Z,24.97
2019-01-23T23:08:26.618Z,27.27
2019-01-23T23:10:56.072Z,27.10
2019-01-23T23:13:25.515Z,26.93
2019-01-23T23:15:54.933Z,26.33
2019-01-23T23:18:24.354Z,27.93
2019-01-23T23:20:54.070Z,27.30
2019-01-23T23:23:23.527Z,28.97
2019-01-23T23:25:52.956Z,30.33
2019-01-23T23:28:26.038Z,28.13
2019-01-23T23:30:53.564Z,28.20
2019-01-23T23:33:23.028Z,29.67
2019-01-23T23:35:52.492Z,30.17
2019-01-23T23:38:21.926Z,30.30
2019-01-23T23:40:51.366Z,28.70
2019-01-23T23:43:20.787Z,26.00
2019-01-23T23:45:50.222Z,31.27
2019-01-23T23:48:19.688Z,28.33
2019-01-23T23:50:49.304Z,28.23
2019-01-23T23:53:18.759Z,28.63
2019-01-23T23:55:48.180Z,29.53
2019-01-23T23:58:17.639Z,30.53
